CheckWX is a tool to help pilots better visualize weather data.  It is not intended as a substitute for an official pre-flight weather briefing.

20:45:04 UTC

KCMA METAR
Camarillo Airport
Camarillo, California, USA
Current

50 mins ago

KCMA 181955Z 23010KT 10SM CLR 14/M03 A3007 RMK AO2 SLP191 T01441033
Observed
Feb-18 @ 19:55 UTC
Wind
  • 230° at 10 KTS
Visibility
10 SM
Flight Rules
VFR
Cloud Levels
  • Clear skies
Temperature
14°C / 57°F
Dewpoint
-3°C / 27°F
Humidity
31%
Altimeter
30.07" Hg
Pressure
1019.1 hPa
Previous

2 hours ago

KCMA 181855Z 24004KT 10SM CLR 13/M03 A3008 RMK AO2 SLP194 T01331033
Observed
Feb-18 @ 18:55 UTC
Wind
  • 240° at 4 KTS
Visibility
10 SM
Flight Rules
VFR
Cloud Levels
  • Clear skies
Temperature
13°C / 55°F
Dewpoint
-3°C / 27°F
Humidity
33%
Altimeter
30.08" Hg
Pressure
1019.4 hPa
Previous

3 hours ago

KCMA 181755Z VRB05KT 10SM CLR 12/M04 A3008 RMK AO2 SLP194 T01221044 10122 20022 50010
Observed
Feb-18 @ 17:55 UTC
Wind
  • Variable at 5 KTS
Visibility
10 SM
Flight Rules
VFR
Cloud Levels
  • Clear skies
Temperature
12°C / 54°F
Dewpoint
-4°C / 25°F
Humidity
33%
Altimeter
30.08" Hg
Pressure
1019.4 hPa